FredonyerEastRWIS Atmospheric Data: 01/11/2019 Summary  Detailed Graphs  Station List

  Temperature     Wind Precipitation Visibility
Timestamp Air Wet
Bulb
Dew-
point
24-hr
Max
24-hr
Min
Relative
Humidity
Atmospheric
Pressure
Avg
Speed
Avg
Dir
Spot
Speed
Spot
Dir
Max
Speed
Max
Dir
  Rate Situation Start End 1 hr 3 hr 6 hr 12 hr 24 hr   Situation
Date Time °F °F °F °F °F % in Hg mph ° mph ° mph ° Y/N in/hr text Date Time Date Time in in in in in mi text
01/11/2019 12:08 AM 25.52 25.52 25.34 45.14 25.52 98.0 Not Reported 0.00 N 0.00 N 0.00 N No 0.000 No Precipitation 01/09/2019 08:14 PM 01/09/2019 08:19 PM 0.000 0.000 0.000 0.000 0.000 Not Reported Not Reported
01/11/2019 12:23 AM 25.52 25.52 25.34 45.14 25.34 98.0 Not Reported 0.00 N 0.00 N 0.00 N No 0.000 No Precipitation 01/09/2019 08:14 PM 01/09/2019 08:19 PM 0.000 0.000 0.000 0.000 0.000 Not Reported Not Reported
01/11/2019 12:38 AM 25.52 25.34 25.16 45.14 25.34 98.0 Not Reported 0.00 N 0.00 N 0.22 N No 0.000 No Precipitation 01/09/2019 08:14 PM 01/09/2019 08:19 PM 0.000 0.000 0.000 0.000 0.000 Not Reported Not Reported
01/11/2019 12:53 AM 25.70 25.70 25.52 45.14 25.34 98.0 Not Reported 0.00 N 0.00 N 0.00 N No 0.000 No Precipitation 01/09/2019 08:14 PM 01/09/2019 08:19 PM 0.000 0.000 0.000 0.000 0.000 Not Reported Not Reported
01/11/2019 01:08 AM 25.70 25.70 25.52 45.14 25.34 98.0 Not Reported 0.00 N 0.00 N 0.00 N No 0.000 No Precipitation 01/09/2019 08:14 PM 01/09/2019 08:19 PM 0.000 0.000 0.000 0.000 0.000 Not Reported Not Reported
01/11/2019 01:23 AM 25.88 25.88 25.70 45.14 25.34 98.0 Not Reported 0.22 NE 0.00 NE 0.00 NW No 0.000 No Precipitation 01/09/2019 08:14 PM 01/09/2019 08:19 PM 0.000 0.000 0.000 0.000 0.000 Not Reported Not Reported
01/11/2019 01:38 AM 25.88 25.70 25.52 45.14 25.34 98.0 Not Reported 0.00 N 0.00 N 0.89 NE No 0.000 No Precipitation 01/09/2019 08:14 PM 01/09/2019 08:19 PM 0.000 0.000 0.000 0.000 0.000 Not Reported Not Reported
01/11/2019 01:53 AM 25.88 25.70 25.52 45.14 25.34 98.0 Not Reported 0.00 N 0.00 N 0.00 N No 0.000 No Precipitation 01/09/2019 08:14 PM 01/09/2019 08:19 PM 0.000 0.000 0.000 0.000 0.000 Not Reported Not Reported
01/11/2019 02:08 AM 25.70 25.52 25.34 45.14 25.34 98.0 Not Reported 0.00 N 0.00 N 0.45 N No 0.000 No Precipitation 01/09/2019 08:14 PM 01/09/2019 08:19 PM 0.000 0.000 0.000 0.000 0.000 Not Reported Not Reported
01/11/2019 02:23 AM 25.70 25.52 25.34 45.14 25.34 98.0 Not Reported 0.00 N 0.00 N 0.22 N No 0.000 No Precipitation 01/09/2019 08:14 PM 01/09/2019 08:19 PM 0.000 0.000 0.000 0.000 0.000 Not Reported Not Reported
01/11/2019 02:38 AM 25.70 25.52 25.34 45.14 25.34 98.0 Not Reported 0.00 N 0.00 N 0.00 N No 0.000 No Precipitation 01/09/2019 08:14 PM 01/09/2019 08:19 PM 0.000 0.000 0.000 0.000 0.000 Not Reported Not Reported
01/11/2019 02:53 AM 25.70 25.52 25.34 45.14 25.34 98.0 Not Reported 0.22 N 0.00 N 0.00 N No 0.000 No Precipitation 01/09/2019 08:14 PM 01/09/2019 08:19 PM 0.000 0.000 0.000 0.000 0.000 Not Reported Not Reported
01/11/2019 03:08 AM 25.34 25.34 24.98 45.14 25.34 98.0 Not Reported 0.00 N 0.00 N 0.45 N No 0.000 No Precipitation 01/09/2019 08:14 PM 01/09/2019 08:19 PM 0.000 0.000 0.000 0.000 0.000 Not Reported Not Reported
01/11/2019 03:23 AM 25.34 25.16 24.80 45.14 25.34 98.0 Not Reported 0.00 N 0.00 N 0.00 N No 0.000 No Precipitation 01/09/2019 08:14 PM 01/09/2019 08:19 PM 0.000 0.000 0.000 0.000 0.000 Not Reported Not Reported
01/11/2019 03:38 AM 25.34 25.16 24.80 45.14 25.16 98.0 Not Reported 0.00 N 0.00 NE 0.00 N No 0.000 No Precipitation 01/09/2019 08:14 PM 01/09/2019 08:19 PM 0.000 0.000 0.000 0.000 0.000 Not Reported Not Reported
01/11/2019 03:53 AM 25.16 24.98 24.80 45.14 24.98 98.0 Not Reported 0.00 N 0.00 N 0.00 N No 0.000 No Precipitation 01/09/2019 08:14 PM 01/09/2019 08:19 PM 0.000 0.000 0.000 0.000 0.000 Not Reported Not Reported
01/11/2019 04:08 AM 25.16 24.98 24.80 45.14 24.98 98.0 Not Reported 0.00 N 0.00 N 0.00 N No 0.000 No Precipitation 01/09/2019 08:14 PM 01/09/2019 08:19 PM 0.000 0.000 0.000 0.000 0.000 Not Reported Not Reported
01/11/2019 04:23 AM 24.98 24.98 24.62 45.14 24.98 98.0 Not Reported 0.00 N 0.00 N 0.00 N No 0.000 No Precipitation 01/09/2019 08:14 PM 01/09/2019 08:19 PM 0.000 0.000 0.000 0.000 0.000 Not Reported Not Reported
01/11/2019 04:38 AM 24.80 24.62 24.26 45.14 24.80 97.0 Not Reported 0.00 N 0.00 N 0.00 N No 0.000 No Precipitation 01/09/2019 08:14 PM 01/09/2019 08:19 PM 0.000 0.000 0.000 0.000 0.000 Not Reported Not Reported
01/11/2019 04:53 AM 24.62 24.44 24.08 45.14 24.62 97.0 Not Reported 0.00 N 0.00 N 0.00 N No 0.000 No Precipitation 01/09/2019 08:14 PM 01/09/2019 08:19 PM 0.000 0.000 0.000 0.000 0.000 Not Reported Not Reported
01/11/2019 05:08 AM 24.26 24.08 23.72 45.14 24.26 97.0 Not Reported 0.00 N 0.00 N 0.00 N No 0.000 No Precipitation 01/09/2019 08:14 PM 01/09/2019 08:19 PM 0.000 0.000 0.000 0.000 0.000 Not Reported Not Reported
01/11/2019 05:23 AM 23.90 23.72 23.36 45.14 23.90 97.0 Not Reported 0.00 N 0.00 N 0.00 N No 0.000 No Precipitation 01/09/2019 08:14 PM 01/09/2019 08:19 PM 0.000 0.000 0.000 0.000 0.000 Not Reported Not Reported
01/11/2019 05:38 AM 24.08 23.90 23.36 45.14 23.72 97.0 Not Reported 0.00 N 0.00 NE 0.00 N No 0.000 No Precipitation 01/09/2019 08:14 PM 01/09/2019 08:19 PM 0.000 0.000 0.000 0.000 0.000 Not Reported Not Reported
01/11/2019 05:53 AM 24.08 23.90 23.36 45.14 23.72 97.0 Not Reported 0.00 N 0.00 E 0.45 NE No 0.000 No Precipitation 01/09/2019 08:14 PM 01/09/2019 08:19 PM 0.000 0.000 0.000 0.000 0.000 Not Reported Not Reported
01/11/2019 06:08 AM 24.08 23.90 23.54 45.14 23.72 97.0 Not Reported 0.00 N 0.00 NE 0.00 NE No 0.000 No Precipitation 01/09/2019 08:14 PM 01/09/2019 08:19 PM 0.000 0.000 0.000 0.000 0.000 Not Reported Not Reported
01/11/2019 06:23 AM 23.90 23.72 23.18 45.14 23.72 97.0 Not Reported 0.00 N 0.00 NE 0.00 NE No 0.000 No Precipitation 01/09/2019 08:14 PM 01/09/2019 08:19 PM 0.000 0.000 0.000 0.000 0.000 Not Reported Not Reported
01/11/2019 06:38 AM 23.90 23.72 23.18 45.14 23.72 97.0 Not Reported 0.00 N 0.00 NE 0.00 NE No 0.000 No Precipitation 01/09/2019 08:14 PM 01/09/2019 08:19 PM 0.000 0.000 0.000 0.000 0.000 Not Reported Not Reported
01/11/2019 06:53 AM 23.72 23.54 23.00 45.14 23.72 97.0 Not Reported 0.00 N 0.00 N 0.00 N No 0.000 No Precipitation 01/09/2019 08:14 PM 01/09/2019 08:19 PM 0.000 0.000 0.000 0.000 0.000 Not Reported Not Reported
01/11/2019 07:08 AM 23.36 23.18 22.64 45.14 23.36 97.0 Not Reported 0.00 N 0.00 N 0.00 N No 0.000 No Precipitation 01/09/2019 08:14 PM 01/09/2019 08:19 PM 0.000 0.000 0.000 0.000 0.000 Not Reported Not Reported
01/11/2019 07:23 AM 23.36 23.18 22.64 45.14 23.18 97.0 Not Reported 0.00 N 0.00 N 0.89 N No 0.000 No Precipitation 01/09/2019 08:14 PM 01/09/2019 08:19 PM 0.000 0.000 0.000 0.000 0.000 Not Reported Not Reported
01/11/2019 07:38 AM 23.36 23.00 22.64 45.14 23.18 97.0 Not Reported 0.00 N 0.00 N 0.00 N No 0.000 No Precipitation 01/09/2019 08:14 PM 01/09/2019 08:19 PM 0.000 0.000 0.000 0.000 0.000 Not Reported Not Reported
01/11/2019 07:53 AM 23.90 23.54 23.18 45.14 23.18 97.0 Not Reported 0.00 N 0.00 N 0.22 N No 0.000 No Precipitation 01/09/2019 08:14 PM 01/09/2019 08:19 PM 0.000 0.000 0.000 0.000 0.000 Not Reported Not Reported
01/11/2019 08:08 AM 24.44 24.08 23.72 45.14 23.18 97.0 Not Reported 0.00 N 0.00 N 0.00 N No 0.000 No Precipitation 01/09/2019 08:14 PM 01/09/2019 08:19 PM 0.000 0.000 0.000 0.000 0.000 Not Reported Not Reported
01/11/2019 08:23 AM 25.16 24.98 24.44 45.14 23.18 96.0 Not Reported 0.00 N 0.00 N 0.00 N No 0.000 No Precipitation 01/09/2019 08:14 PM 01/09/2019 08:19 PM 0.000 0.000 0.000 0.000 0.000 Not Reported Not Reported
01/11/2019 08:38 AM 26.60 26.42 25.88 45.14 23.18 96.0 Not Reported 0.22 NE 0.00 NE 0.22 SE No 0.000 No Precipitation 01/09/2019 08:14 PM 01/09/2019 08:19 PM 0.000 0.000 0.000 0.000 0.000 Not Reported Not Reported
01/11/2019 08:53 AM 27.68 27.50 26.96 45.14 23.18 96.0 Not Reported 0.00 N 0.00 NE 0.00 NE No 0.000 No Precipitation 01/09/2019 08:14 PM 01/09/2019 08:19 PM 0.000 0.000 0.000 0.000 0.000 Not Reported Not Reported
01/11/2019 09:08 AM 29.12 28.76 28.22 45.14 23.18 96.0 Not Reported 0.00 N 0.00 NE 0.45 NE No 0.000 No Precipitation 01/09/2019 08:14 PM 01/09/2019 08:19 PM 0.000 0.000 0.000 0.000 0.000 Not Reported Not Reported
01/11/2019 09:23 AM 30.38 30.02 29.48 45.14 23.18 96.0 Not Reported 0.00 N 0.00 SE 0.00 E No 0.000 No Precipitation 01/09/2019 08:14 PM 01/09/2019 08:19 PM 0.000 0.000 0.000 0.000 0.000 Not Reported Not Reported
01/11/2019 09:38 AM 31.64 31.28 30.56 45.14 23.18 96.0 Not Reported 0.00 N 0.00 NE 0.00 S No 0.000 No Precipitation 01/09/2019 08:14 PM 01/09/2019 08:19 PM 0.000 0.000 0.000 0.000 0.000 Not Reported Not Reported
01/11/2019 09:53 AM 32.18 32.00 31.28 45.14 23.18 96.0 Not Reported 0.00 N 0.00 N 0.00 E No 0.000 No Precipitation 01/09/2019 08:14 PM 01/09/2019 08:19 PM 0.000 0.000 0.000 0.000 0.000 Not Reported Not Reported
01/11/2019 10:08 AM 32.72 32.36 32.00 45.14 23.18 96.0 Not Reported 0.00 NW 0.22 NW 0.22 NW No 0.000 No Precipitation 01/09/2019 08:14 PM 01/09/2019 08:19 PM 0.000 0.000 0.000 0.000 0.000 Not Reported Not Reported
01/11/2019 10:23 AM 33.62 33.08 32.54 45.14 23.18 96.0 Not Reported 0.00 W 0.45 SW 0.00 W No 0.000 No Precipitation 01/09/2019 08:14 PM 01/09/2019 08:19 PM 0.000 0.000 0.000 0.000 0.000 Not Reported Not Reported
01/11/2019 10:38 AM 34.52 33.62 32.36 45.14 23.18 91.0 Not Reported 0.22 SE 1.57 SE 0.67 SW No 0.000 No Precipitation 01/09/2019 08:14 PM 01/09/2019 08:19 PM 0.000 0.000 0.000 0.000 0.000 Not Reported Not Reported
01/11/2019 10:53 AM 34.88 33.98 32.54 45.14 23.18 90.0 Not Reported 1.57 S 0.00 NW 3.13 NE No 0.000 No Precipitation 01/09/2019 08:14 PM 01/09/2019 08:19 PM 0.000 0.000 0.000 0.000 0.000 Not Reported Not Reported
01/11/2019 11:08 AM 35.60 34.16 32.00 45.14 23.18 85.0 Not Reported 1.79 E 0.89 SE 1.79 S No 0.000 No Precipitation 01/09/2019 08:14 PM 01/09/2019 08:19 PM 0.000 0.000 0.000 0.000 0.000 Not Reported Not Reported
01/11/2019 11:23 AM 36.32 34.52 32.00 45.14 23.18 83.0 Not Reported 0.89 NE 1.57 N 3.58 E No 0.000 No Precipitation 01/09/2019 08:14 PM 01/09/2019 08:19 PM 0.000 0.000 0.000 0.000 0.000 Not Reported Not Reported
01/11/2019 11:38 AM 36.32 34.34 31.64 45.14 23.18 81.0 Not Reported 2.24 NE 2.91 N 3.80 NE No 0.000 No Precipitation 01/09/2019 08:14 PM 01/09/2019 08:19 PM 0.000 0.000 0.000 0.000 0.000 Not Reported Not Reported
01/11/2019 11:53 AM 36.14 34.16 31.46 45.14 23.18 82.0 Not Reported 0.89 S 1.34 SE 3.13 N No 0.000 No Precipitation 01/09/2019 08:14 PM 01/09/2019 08:19 PM 0.000 0.000 0.000 0.000 0.000 Not Reported Not Reported
01/11/2019 12:08 PM 36.14 34.16 31.46 45.14 23.18 82.0 Not Reported 2.01 NE 4.03 NE 2.91 N No 0.000 No Precipitation 01/09/2019 08:14 PM 01/09/2019 08:19 PM 0.000 0.000 0.000 0.000 0.000 Not Reported Not Reported
01/11/2019 12:23 PM 37.04 34.70 31.64 45.14 23.18 80.0 Not Reported 1.57 E 2.91 S 4.25 NE No 0.000 No Precipitation 01/09/2019 08:14 PM 01/09/2019 08:19 PM 0.000 0.000 0.000 0.000 0.000 Not Reported Not Reported
01/11/2019 12:38 PM 37.22 34.70 31.28 45.14 23.18 78.0 Not Reported 1.34 E 0.89 SE 3.36 S No 0.000 No Precipitation 01/09/2019 08:14 PM 01/09/2019 08:19 PM 0.000 0.000 0.000 0.000 0.000 Not Reported Not Reported
01/11/2019 12:53 PM 37.40 34.88 31.10 45.14 23.18 77.0 Not Reported 1.12 E 2.01 NE 4.47 NE No 0.000 No Precipitation 01/09/2019 08:14 PM 01/09/2019 08:19 PM 0.000 0.000 0.000 0.000 0.000 Not Reported Not Reported
01/11/2019 01:08 PM 38.30 35.42 31.28 44.06 23.18 74.0 Not Reported 1.79 E 1.57 E 2.68 E No 0.000 No Precipitation 01/09/2019 08:14 PM 01/09/2019 08:19 PM 0.000 0.000 0.000 0.000 0.000 Not Reported Not Reported
01/11/2019 01:23 PM 39.38 35.78 30.92 43.70 23.18 71.0 Not Reported 1.34 SE 2.68 NE 4.25 N No 0.000 No Precipitation 01/09/2019 08:14 PM 01/09/2019 08:19 PM 0.000 0.000 0.000 0.000 0.000 Not Reported Not Reported
01/11/2019 01:38 PM 40.64 36.68 31.46 41.54 23.18 69.0 Not Reported 1.79 N 0.67 NE 4.70 NE No 0.000 No Precipitation 01/09/2019 08:14 PM 01/09/2019 08:19 PM 0.000 0.000 0.000 0.000 0.000 Not Reported Not Reported
01/11/2019 01:53 PM 40.46 36.68 31.28 41.54 23.18 68.0 Not Reported 1.12 S 1.79 N 5.59 NE No 0.000 No Precipitation 01/09/2019 08:14 PM 01/09/2019 08:19 PM 0.000 0.000 0.000 0.000 0.000 Not Reported Not Reported
01/11/2019 02:08 PM 41.90 37.40 31.46 41.90 23.18 65.0 Not Reported 0.89 E 1.12 E 3.80 E No 0.000 No Precipitation 01/09/2019 08:14 PM 01/09/2019 08:19 PM 0.000 0.000 0.000 0.000 0.000 Not Reported Not Reported
01/11/2019 02:23 PM 41.36 37.22 31.28 42.08 23.18 66.0 Not Reported 2.91 SE 2.46 E 3.36 NE No 0.000 No Precipitation 01/09/2019 08:14 PM 01/09/2019 08:19 PM 0.000 0.000 0.000 0.000 0.000 Not Reported Not Reported
01/11/2019 02:38 PM 42.44 37.58 30.92 42.44 23.18 62.0 Not Reported 2.46 E 2.24 N 4.47 SE No 0.000 No Precipitation 01/09/2019 08:14 PM 01/09/2019 08:19 PM 0.000 0.000 0.000 0.000 0.000 Not Reported Not Reported
01/11/2019 02:56 PM 42.08 37.40 31.10 42.44 23.18 64.0 Not Reported 1.34 SE 1.34 S 4.70 N No 0.000 No Precipitation 01/09/2019 08:14 PM 01/09/2019 08:19 PM 0.000 0.000 0.000 0.000 0.000 Not Reported Not Reported
01/11/2019 03:08 PM 40.82 36.86 31.10 42.44 23.18 67.0 Not Reported 1.12 N 1.12 SE 4.92 SE No 0.000 No Precipitation 01/09/2019 08:14 PM 01/09/2019 08:19 PM 0.000 0.000 0.000 0.000 0.000 Not Reported Not Reported
01/11/2019 03:23 PM 39.92 36.32 31.46 42.44 23.18 70.0 Not Reported 0.89 NE 0.89 SE 4.70 NE No 0.000 No Precipitation 01/09/2019 08:14 PM 01/09/2019 08:19 PM 0.000 0.000 0.000 0.000 0.000 Not Reported Not Reported
01/11/2019 03:38 PM 37.76 35.06 31.46 42.44 23.18 77.0 Not Reported 1.57 N 1.57 N 3.13 E No 0.000 No Precipitation 01/09/2019 08:14 PM 01/09/2019 08:19 PM 0.000 0.000 0.000 0.000 0.000 Not Reported Not Reported
01/11/2019 03:53 PM 37.58 35.06 31.46 42.44 23.18 77.0 Not Reported 0.89 NE 0.89 NW 2.24 NE No 0.000 No Precipitation 01/09/2019 08:14 PM 01/09/2019 08:19 PM 0.000 0.000 0.000 0.000 0.000 Not Reported Not Reported
01/11/2019 04:08 PM 35.06 33.62 31.46 42.44 23.18 85.0 Not Reported 0.89 N 1.34 NE 1.79 NE No 0.000 No Precipitation 01/09/2019 08:14 PM 01/09/2019 08:19 PM 0.000 0.000 0.000 0.000 0.000 Not Reported Not Reported
01/11/2019 04:23 PM 33.08 32.36 31.28 42.44 23.18 92.0 Not Reported 0.89 N 0.45 NW 2.46 E No 0.000 No Precipitation 01/09/2019 08:14 PM 01/09/2019 08:19 PM 0.000 0.000 0.000 0.000 0.000 Not Reported Not Reported
01/11/2019 04:38 PM 32.00 31.64 30.92 42.44 23.18 95.0 Not Reported 1.12 NW 0.89 NW 1.57 N No 0.000 No Precipitation 01/09/2019 08:14 PM 01/09/2019 08:19 PM 0.000 0.000 0.000 0.000 0.000 Not Reported Not Reported
01/11/2019 04:53 PM 31.10 30.56 30.02 42.44 23.18 95.0 Not Reported 0.22 NW 0.00 NW 1.34 N No 0.000 No Precipitation 01/09/2019 08:14 PM 01/09/2019 08:19 PM 0.000 0.000 0.000 0.000 0.000 Not Reported Not Reported
01/11/2019 05:08 PM 29.84 29.66 28.94 42.44 23.18 96.0 Not Reported 0.00 N 0.00 NW 1.12 NW No 0.000 No Precipitation 01/09/2019 08:14 PM 01/09/2019 08:19 PM 0.000 0.000 0.000 0.000 0.000 Not Reported Not Reported
01/11/2019 05:23 PM 28.76 28.58 28.04 42.44 23.18 97.0 Not Reported 0.00 N 0.00 NW 0.45 NW No 0.000 No Precipitation 01/09/2019 08:14 PM 01/09/2019 08:19 PM 0.000 0.000 0.000 0.000 0.000 Not Reported Not Reported
01/11/2019 05:38 PM 28.76 28.40 28.04 42.44 23.18 97.0 Not Reported 0.89 SW 0.45 SW 0.67 NW No 0.000 No Precipitation 01/09/2019 08:14 PM 01/09/2019 08:19 PM 0.000 0.000 0.000 0.000 0.000 Not Reported Not Reported
01/11/2019 05:53 PM 28.22 28.04 27.68 42.44 23.18 98.0 Not Reported 0.00 N 0.00 W 1.34 N No 0.000 No Precipitation 01/09/2019 08:14 PM 01/09/2019 08:19 PM 0.000 0.000 0.000 0.000 0.000 Not Reported Not Reported
01/11/2019 06:08 PM 27.68 27.50 27.32 42.44 23.18 98.0 Not Reported 0.00 N 0.00 N 1.12 S No 0.000 No Precipitation 01/09/2019 08:14 PM 01/09/2019 08:19 PM 0.000 0.000 0.000 0.000 0.000 Not Reported Not Reported
01/11/2019 06:23 PM 27.68 27.50 27.32 42.44 23.18 98.0 Not Reported 0.89 N 0.67 S 2.01 S No 0.000 No Precipitation 01/09/2019 08:14 PM 01/09/2019 08:19 PM 0.000 0.000 0.000 0.000 0.000 Not Reported Not Reported
01/11/2019 06:38 PM 27.50 27.32 27.14 42.44 23.18 98.0 Not Reported 0.67 NW 0.89 N 1.79 S No 0.000 No Precipitation 01/09/2019 08:14 PM 01/09/2019 08:19 PM 0.000 0.000 0.000 0.000 0.000 Not Reported Not Reported
01/11/2019 06:53 PM 27.14 26.96 26.78 42.44 23.18 98.0 Not Reported 0.00 SE 0.00 SE 0.67 W No 0.000 No Precipitation 01/09/2019 08:14 PM 01/09/2019 08:19 PM 0.000 0.000 0.000 0.000 0.000 Not Reported Not Reported
01/11/2019 07:08 PM 26.78 26.60 26.42 42.44 23.18 98.0 Not Reported 0.00 N 0.00 W 0.22 SE No 0.000 No Precipitation 01/09/2019 08:14 PM 01/09/2019 08:19 PM 0.000 0.000 0.000 0.000 0.000 Not Reported Not Reported
01/11/2019 07:23 PM 26.60 26.42 26.24 42.44 23.18 98.0 Not Reported 0.00 N 0.00 W 0.00 W No 0.000 No Precipitation 01/09/2019 08:14 PM 01/09/2019 08:19 PM 0.000 0.000 0.000 0.000 0.000 Not Reported Not Reported
01/11/2019 07:38 PM 26.78 26.60 26.42 42.44 23.18 98.0 Not Reported 0.89 W 0.89 NW 0.00 W No 0.000 No Precipitation 01/09/2019 08:14 PM 01/09/2019 08:19 PM 0.000 0.000 0.000 0.000 0.000 Not Reported Not Reported
01/11/2019 07:53 PM 26.78 26.60 26.42 42.44 23.18 98.0 Not Reported 0.00 N 0.00 N 0.89 N No 0.000 No Precipitation 01/09/2019 08:14 PM 01/09/2019 08:19 PM 0.000 0.000 0.000 0.000 0.000 Not Reported Not Reported
01/11/2019 08:08 PM 26.78 26.60 26.42 42.44 23.18 98.0 Not Reported 0.00 N 0.00 N 0.67 N No 0.000 No Precipitation 01/09/2019 08:14 PM 01/09/2019 08:19 PM 0.000 0.000 0.000 0.000 0.000 Not Reported Not Reported
01/11/2019 08:23 PM 26.60 26.60 26.42 42.44 23.18 99.0 Not Reported 0.00 N 0.00 N 0.22 N No 0.000 No Precipitation 01/09/2019 08:14 PM 01/09/2019 08:19 PM 0.000 0.000 0.000 0.000 0.000 Not Reported Not Reported
01/11/2019 08:38 PM 26.42 26.24 26.24 42.44 23.18 98.0 Not Reported 0.00 N 0.00 N 0.00 N No 0.000 No Precipitation 01/09/2019 08:14 PM 01/09/2019 08:19 PM 0.000 0.000 0.000 0.000 0.000 Not Reported Not Reported
01/11/2019 08:53 PM 26.24 26.06 25.88 42.44 23.18 98.0 Not Reported 0.00 N 0.00 N 0.00 N No 0.000 No Precipitation 01/09/2019 08:14 PM 01/09/2019 08:19 PM 0.000 0.000 0.000 0.000 0.000 Not Reported Not Reported
01/11/2019 09:08 PM 26.24 26.24 26.06 42.44 23.18 99.0 Not Reported 0.00 N 0.00 N 0.00 N No 0.000 No Precipitation 01/09/2019 08:14 PM 01/09/2019 08:19 PM 0.000 0.000 0.000 0.000 0.000 Not Reported Not Reported
01/11/2019 09:23 PM 25.70 25.70 25.52 42.44 23.18 98.0 Not Reported 0.00 N 0.00 N 0.00 N No 0.000 No Precipitation 01/09/2019 08:14 PM 01/09/2019 08:19 PM 0.000 0.000 0.000 0.000 0.000 Not Reported Not Reported
01/11/2019 09:38 PM 25.88 25.88 25.70 42.44 23.18 98.0 Not Reported 0.00 N 0.00 N 0.67 N No 0.000 No Precipitation 01/09/2019 08:14 PM 01/09/2019 08:19 PM 0.000 0.000 0.000 0.000 0.000 Not Reported Not Reported
01/11/2019 09:53 PM 25.70 25.70 25.52 42.44 23.18 98.0 Not Reported 0.00 N 0.00 N 0.00 N No 0.000 No Precipitation 01/09/2019 08:14 PM 01/09/2019 08:19 PM 0.000 0.000 0.000 0.000 0.000 Not Reported Not Reported
01/11/2019 10:08 PM 25.34 25.16 24.98 42.44 23.18 98.0 Not Reported 0.00 N 0.00 N 0.00 N No 0.000 No Precipitation 01/09/2019 08:14 PM 01/09/2019 08:19 PM 0.000 0.000 0.000 0.000 0.000 Not Reported Not Reported
01/11/2019 10:23 PM 24.80 24.62 24.44 42.44 23.18 98.0 Not Reported 0.00 N 0.00 N 0.00 N No 0.000 No Precipitation 01/09/2019 08:14 PM 01/09/2019 08:19 PM 0.000 0.000 0.000 0.000 0.000 Not Reported Not Reported
01/11/2019 10:38 PM 24.80 24.62 24.44 42.44 23.18 98.0 Not Reported 0.00 N 0.00 N 0.45 N No 0.000 No Precipitation 01/09/2019 08:14 PM 01/09/2019 08:19 PM 0.000 0.000 0.000 0.000 0.000 Not Reported Not Reported
01/11/2019 10:53 PM 24.62 24.62 24.44 42.44 23.18 98.0 Not Reported 0.00 N 0.00 N 0.00 N No 0.000 No Precipitation 01/09/2019 08:14 PM 01/09/2019 08:19 PM 0.000 0.000 0.000 0.000 0.000 Not Reported Not Reported
01/11/2019 11:08 PM 24.44 24.26 24.08 42.44 23.18 98.0 Not Reported 0.45 N 0.45 N 0.00 N No 0.000 No Precipitation 01/09/2019 08:14 PM 01/09/2019 08:19 PM 0.000 0.000 0.000 0.000 0.000 Not Reported Not Reported
01/11/2019 11:23 PM 24.44 24.26 24.08 42.44 23.18 98.0 Not Reported 0.00 N 0.45 N 0.89 N No 0.000 No Precipitation 01/09/2019 08:14 PM 01/09/2019 08:19 PM 0.000 0.000 0.000 0.000 0.000 Not Reported Not Reported
01/11/2019 11:38 PM 24.26 24.26 24.08 42.44 23.18 98.0 Not Reported 0.67 NW 0.00 NW 0.67 N No 0.000 No Precipitation 01/09/2019 08:14 PM 01/09/2019 08:19 PM 0.000 0.000 0.000 0.000 0.000 Not Reported Not Reported
01/11/2019 11:53 PM 24.26 24.08 23.90 42.44 23.18 98.0 Not Reported 0.00 N 0.00 NW 0.67 N No 0.000 No Precipitation 01/09/2019 08:14 PM 01/09/2019 08:19 PM 0.000 0.000 0.000 0.000 0.000 Not Reported Not Reported